createdAt,value
2018-11-07T00:01:00.971Z,79.10
2018-11-07T00:03:29.867Z,79.19
2018-11-07T00:05:58.758Z,79.46
2018-11-07T00:08:29.022Z,79.51
2018-11-07T00:10:57.884Z,79.26
2018-11-07T00:13:26.767Z,79.24
2018-11-07T00:15:55.999Z,79.13
2018-11-07T00:18:24.919Z,78.85
2018-11-07T00:20:53.785Z,78.38
2018-11-07T00:23:22.716Z,78.61
2018-11-07T00:25:51.654Z,77.96
2018-11-07T00:28:20.545Z,77.73
2018-11-07T00:30:49.528Z,77.52
2018-11-07T00:33:18.875Z,77.26
2018-11-07T00:35:47.775Z,77.10
2018-11-07T00:38:16.720Z,77.08
2018-11-07T00:40:45.653Z,77.13
2018-11-07T00:43:14.652Z,77.42
2018-11-07T00:45:44.089Z,77.28
2018-11-07T00:48:13.064Z,77.51
2018-11-07T00:50:42.050Z,77.20
2018-11-07T00:53:10.947Z,77.05
2018-11-07T00:55:39.875Z,76.53
2018-11-07T00:58:08.829Z,76.52
2018-11-07T01:00:37.721Z,75.90
2018-11-07T01:03:06.741Z,75.98
2018-11-07T01:05:35.689Z,75.36
2018-11-07T01:08:04.636Z,74.80
2018-11-07T01:10:33.570Z,75.04
2018-11-07T01:13:02.555Z,74.56
2018-11-07T01:15:31.419Z,74.31
2018-11-07T01:18:00.330Z,74.75
2018-11-07T01:20:32.278Z,74.95
2018-11-07T01:23:01.162Z,74.69
2018-11-07T01:25:30.151Z,74.53
2018-11-07T01:27:59.063Z,74.93
2018-11-07T01:30:28.011Z,74.39
2018-11-07T01:32:56.991Z,74.39
2018-11-07T01:35:25.887Z,73.75
2018-11-07T01:37:54.804Z,73.60
2018-11-07T01:40:23.707Z,73.58
2018-11-07T01:42:58.179Z,73.42
2018-11-07T01:45:27.099Z,73.53
2018-11-07T01:47:56.068Z,73.50
2018-11-07T01:50:25.007Z,73.54
2018-11-07T01:52:53.971Z,73.08
2018-11-07T01:55:22.882Z,73.10
2018-11-07T01:57:51.872Z,73.15
2018-11-07T02:00:20.928Z,73.71
2018-11-07T02:02:49.820Z,73.19
2018-11-07T02:05:18.863Z,74.13
2018-11-07T02:07:47.802Z,73.31
2018-11-07T02:10:16.700Z,73.71
2018-11-07T02:12:45.711Z,74.64
2018-11-07T02:15:14.622Z,74.02
2018-11-07T02:17:43.518Z,73.88
2018-11-07T02:20:12.971Z,73.87
2018-11-07T02:22:42.370Z,73.97
2018-11-07T02:25:11.345Z,73.73
2018-11-07T02:27:41.009Z,74.63
2018-11-07T02:30:13.622Z,74.60
2018-11-07T02:32:42.583Z,74.74
2018-11-07T02:35:11.473Z,75.44
2018-11-07T02:37:40.568Z,74.60
2018-11-07T02:40:16.006Z,74.86
2018-11-07T02:42:44.956Z,73.82
2018-11-07T02:45:13.949Z,73.96
2018-11-07T02:47:43.053Z,73.06
2018-11-07T02:50:12.707Z,73.26
2018-11-07T02:52:41.804Z,73.31
2018-11-07T02:55:10.848Z,73.46
2018-11-07T02:57:39.738Z,73.13
2018-11-07T03:00:10.959Z,72.56
2018-11-07T03:02:40.029Z,72.79
2018-11-07T03:05:09.354Z,72.53
2018-11-07T03:07:39.465Z,71.76
2018-11-07T03:10:10.377Z,70.35
2018-11-07T03:12:39.664Z,69.95
2018-11-07T03:15:09.039Z,69.94
2018-11-07T03:17:38.132Z,69.97
2018-11-07T03:20:08.943Z,69.96
2018-11-07T03:22:37.828Z,69.35
2018-11-07T03:25:07.157Z,69.40
2018-11-07T03:27:36.088Z,69.24
2018-11-07T03:30:05.990Z,69.36
2018-11-07T03:32:34.936Z,69.38
2018-11-07T03:35:03.905Z,69.28
2018-11-07T03:37:32.871Z,69.80
2018-11-07T03:40:01.854Z,69.57
2018-11-07T03:42:30.915Z,70.53
2018-11-07T03:44:59.829Z,70.47
2018-11-07T03:47:28.782Z,71.16
2018-11-07T03:49:57.730Z,71.42
2018-11-07T03:52:26.632Z,71.99
2018-11-07T03:54:55.620Z,72.11
2018-11-07T03:57:24.530Z,71.61
2018-11-07T03:59:53.418Z,71.98
2018-11-07T04:02:22.380Z,71.99
2018-11-07T04:04:51.283Z,72.49
2018-11-07T04:07:20.236Z,72.88
2018-11-07T04:09:49.200Z,72.40
2018-11-07T04:12:18.074Z,72.07
2018-11-07T04:14:47.013Z,72.03
2018-11-07T04:17:17.335Z,72.26
2018-11-07T04:19:46.282Z,72.46
2018-11-07T04:22:15.384Z,72.40
2018-11-07T04:24:44.408Z,72.81
2018-11-07T04:27:13.326Z,72.32
2018-11-07T04:29:42.203Z,72.79
2018-11-07T04:32:12.560Z,73.18
2018-11-07T04:34:41.471Z,73.89
2018-11-07T04:37:10.341Z,73.76
2018-11-07T04:39:39.333Z,73.74
2018-11-07T04:42:08.221Z,73.61
2018-11-07T04:44:37.203Z,73.09
2018-11-07T04:47:06.532Z,73.15
2018-11-07T04:49:35.461Z,72.57
2018-11-07T04:52:04.398Z,73.13
2018-11-07T04:54:33.370Z,72.75
2018-11-07T04:57:02.354Z,72.55
2018-11-07T04:59:31.312Z,72.58
2018-11-07T05:02:00.226Z,73.24
2018-11-07T05:04:29.106Z,73.33
2018-11-07T05:06:58.095Z,73.08
2018-11-07T05:09:27.052Z,73.06
2018-11-07T05:11:56.098Z,72.70
2018-11-07T05:14:25.123Z,73.09
2018-11-07T05:16:54.114Z,73.33
2018-11-07T05:19:23.078Z,72.27
2018-11-07T05:21:51.950Z,72.80
2018-11-07T05:24:20.940Z,72.55
2018-11-07T05:26:51.231Z,72.29
2018-11-07T05:29:20.199Z,72.57
2018-11-07T05:31:49.086Z,71.75
2018-11-07T05:34:18.031Z,71.83
2018-11-07T05:36:47.086Z,71.69
2018-11-07T05:39:15.986Z,71.60
2018-11-07T05:41:46.223Z,71.02
2018-11-07T05:44:15.216Z,70.56
2018-11-07T05:46:44.199Z,70.20
2018-11-07T05:49:13.218Z,70.25
2018-11-07T05:51:42.176Z,70.05
2018-11-07T05:54:11.372Z,69.93
2018-11-07T05:56:40.437Z,69.79
2018-11-07T05:59:09.308Z,69.40
2018-11-07T06:01:38.222Z,68.93
2018-11-07T06:04:07.762Z,68.67
2018-11-07T06:06:36.719Z,69.33
2018-11-07T06:09:07.410Z,70.87
2018-11-07T06:11:36.746Z,70.67
2018-11-07T06:14:06.255Z,69.16
2018-11-07T06:16:35.575Z,68.15
2018-11-07T06:19:04.677Z,67.90
2018-11-07T06:21:33.812Z,66.72
2018-11-07T06:24:02.809Z,66.62
2018-11-07T06:26:31.790Z,66.13
2018-11-07T06:29:00.712Z,65.95
2018-11-07T06:31:29.604Z,65.04
2018-11-07T06:33:58.627Z,65.29
2018-11-07T06:36:28.924Z,65.01
2018-11-07T06:38:57.808Z,63.79
2018-11-07T06:41:26.727Z,64.09
2018-11-07T06:43:55.879Z,64.19
2018-11-07T06:46:24.978Z,63.87
2018-11-07T06:48:53.905Z,62.84
2018-11-07T06:51:22.898Z,62.38
2018-11-07T06:53:51.782Z,61.90
2018-11-07T06:56:20.675Z,61.65
2018-11-07T06:58:49.612Z,61.02
2018-11-07T07:01:18.549Z,61.28
2018-11-07T07:03:47.511Z,61.35
2018-11-07T07:06:16.477Z,60.47
2018-11-07T07:08:45.498Z,60.43
2018-11-07T07:11:14.484Z,59.54
2018-11-07T07:13:43.409Z,60.00
2018-11-07T07:16:13.651Z,59.62
2018-11-07T07:18:42.644Z,59.39
2018-11-07T07:21:11.628Z,59.30
2018-11-07T07:23:40.534Z,59.27
2018-11-07T07:26:09.460Z,59.53
2018-11-07T07:28:38.515Z,59.15
2018-11-07T07:31:07.468Z,58.93
2018-11-07T07:33:36.448Z,59.46
2018-11-07T07:36:05.331Z,59.26
2018-11-07T07:38:34.339Z,59.06
2018-11-07T07:41:03.262Z,59.42
2018-11-07T07:43:32.215Z,59.42
2018-11-07T07:46:01.156Z,59.83
2018-11-07T07:48:30.167Z,59.30
2018-11-07T07:50:59.023Z,58.27
2018-11-07T07:53:29.672Z,58.38
2018-11-07T07:55:58.675Z,57.80
2018-11-07T07:58:27.599Z,57.42
2018-11-07T08:00:57.976Z,57.45
2018-11-07T08:03:26.918Z,56.88
2018-11-07T08:05:55.951Z,57.00
2018-11-07T08:08:24.924Z,57.31
2018-11-07T08:10:53.884Z,56.15
2018-11-07T08:13:22.901Z,55.51
2018-11-07T08:15:51.877Z,55.44
2018-11-07T08:18:20.836Z,54.78
2018-11-07T08:20:49.771Z,55.34
2018-11-07T08:23:18.756Z,55.06
2018-11-07T08:25:47.669Z,55.70
2018-11-07T08:28:16.638Z,55.43
2018-11-07T08:30:45.603Z,54.53
2018-11-07T08:33:14.493Z,53.33
2018-11-07T08:35:43.471Z,53.14
2018-11-07T08:38:12.717Z,54.25
2018-11-07T08:40:41.684Z,54.46
2018-11-07T08:43:10.659Z,54.38
2018-11-07T08:45:39.615Z,54.20
2018-11-07T08:48:08.682Z,53.20
2018-11-07T08:50:37.630Z,53.29
2018-11-07T08:53:06.791Z,53.20
2018-11-07T08:55:37.075Z,52.74
2018-11-07T08:58:06.023Z,53.29
2018-11-07T09:00:35.035Z,53.05
2018-11-07T09:03:04.057Z,53.14
2018-11-07T09:05:33.083Z,53.02
2018-11-07T09:08:01.978Z,52.29
2018-11-07T09:10:30.946Z,51.96
2018-11-07T09:12:59.938Z,52.01
2018-11-07T09:15:28.951Z,52.72
2018-11-07T09:17:59.274Z,52.70
2018-11-07T09:20:28.204Z,52.69
2018-11-07T09:22:57.117Z,52.26
2018-11-07T09:25:26.194Z,52.49
2018-11-07T09:27:55.191Z,53.67
2018-11-07T09:30:24.813Z,51.77
2018-11-07T09:32:53.931Z,52.03
2018-11-07T09:35:22.976Z,51.87
2018-11-07T09:37:51.884Z,51.22
2018-11-07T09:40:27.348Z,50.85
2018-11-07T09:42:56.382Z,50.54
2018-11-07T09:45:25.375Z,50.06
2018-11-07T09:47:54.311Z,49.10
2018-11-07T09:50:23.264Z,48.66
2018-11-07T09:52:52.386Z,47.72
2018-11-07T09:55:21.959Z,49.20
2018-11-07T09:57:50.971Z,49.29
2018-11-07T10:00:21.071Z,48.84
2018-11-07T10:02:50.092Z,49.20
2018-11-07T10:05:20.291Z,48.36
2018-11-07T10:07:49.371Z,49.65
2018-11-07T10:10:19.734Z,49.72
2018-11-07T10:12:48.831Z,49.50
2018-11-07T10:15:18.074Z,50.21
2018-11-07T10:17:47.208Z,50.89
2018-11-07T10:20:19.732Z,51.29
2018-11-07T10:22:49.169Z,51.74
2018-11-07T10:25:18.235Z,52.33
2018-11-07T10:27:47.721Z,52.91
2018-11-07T10:30:17.909Z,53.81
2018-11-07T10:32:47.771Z,54.32
2018-11-07T10:35:16.990Z,54.81
2018-11-07T10:37:46.049Z,54.88
2018-11-07T10:40:16.976Z,54.25
2018-11-07T10:42:46.581Z,54.97
2018-11-07T10:45:15.596Z,54.64
2018-11-07T10:47:45.910Z,54.87
2018-11-07T10:50:16.116Z,54.16
2018-11-07T10:52:47.789Z,53.95
2018-11-07T10:55:17.448Z,54.09
2018-11-07T10:57:46.920Z,54.06
2018-11-07T11:00:21.659Z,53.92
2018-11-07T11:02:55.545Z,54.45
2018-11-07T11:05:24.445Z,53.54
2018-11-07T11:07:53.457Z,53.42
2018-11-07T11:10:22.550Z,53.72
2018-11-07T11:12:52.748Z,53.95
2018-11-07T11:15:21.688Z,53.44
2018-11-07T11:17:50.589Z,54.11
2018-11-07T11:20:19.590Z,54.04
2018-11-07T11:22:48.518Z,54.66
2018-11-07T11:25:17.467Z,55.13
2018-11-07T11:27:47.824Z,55.52
2018-11-07T11:30:16.815Z,56.70
2018-11-07T11:32:45.757Z,57.13
2018-11-07T11:35:14.955Z,57.63
2018-11-07T11:37:43.836Z,57.70
2018-11-07T11:40:14.200Z,58.14
2018-11-07T11:42:44.528Z,58.59
2018-11-07T11:45:15.485Z,58.71
2018-11-07T11:47:44.952Z,58.86
2018-11-07T11:50:15.799Z,59.07
2018-11-07T11:52:45.631Z,58.90
2018-11-07T11:55:14.554Z,58.74
2018-11-07T11:57:44.271Z,58.45
2018-11-07T12:00:15.493Z,58.68
2018-11-07T12:02:44.980Z,58.26
2018-11-07T12:05:14.875Z,58.97
2018-11-07T12:07:45.180Z,59.18
2018-11-07T12:10:19.267Z,57.44
2018-11-07T12:12:50.424Z,58.14
2018-11-07T12:15:20.457Z,58.90
2018-11-07T12:17:49.404Z,57.81
2018-11-07T12:20:18.494Z,57.93
2018-11-07T12:22:47.511Z,58.27
2018-11-07T12:25:17.233Z,57.95
2018-11-07T12:27:46.385Z,57.43
2018-11-07T12:30:17.234Z,58.38
2018-11-07T12:32:47.269Z,58.37
2018-11-07T12:35:16.991Z,58.44
2018-11-07T12:37:45.959Z,58.91
2018-11-07T12:40:15.637Z,58.72
2018-11-07T12:42:44.632Z,58.26
2018-11-07T12:45:14.789Z,58.27
2018-11-07T12:47:43.718Z,58.52
2018-11-07T12:50:15.225Z,59.18
2018-11-07T12:52:44.958Z,58.70
2018-11-07T12:55:14.148Z,58.34
2018-11-07T12:57:44.239Z,57.79
2018-11-07T13:00:16.670Z,57.61
2018-11-07T13:02:45.781Z,58.15
2018-11-07T13:05:16.263Z,59.24
2018-11-07T13:07:46.260Z,59.33
2018-11-07T13:10:17.518Z,58.65
2018-11-07T13:12:46.992Z,58.95
2018-11-07T13:15:16.526Z,58.66
2018-11-07T13:17:46.151Z,58.98
2018-11-07T13:20:18.194Z,58.70
2018-11-07T13:22:48.335Z,58.67
2018-11-07T13:25:17.667Z,58.61
2018-11-07T13:27:46.718Z,58.73
2018-11-07T13:30:18.845Z,59.35
2018-11-07T13:32:47.811Z,60.47
2018-11-07T13:35:17.523Z,60.58
2018-11-07T13:37:47.592Z,60.01
2018-11-07T13:40:18.990Z,59.61
2018-11-07T13:42:47.963Z,60.42
2018-11-07T13:45:18.261Z,61.18
2018-11-07T13:47:48.260Z,61.58
2018-11-07T13:50:17.620Z,62.07
2018-11-07T13:52:48.020Z,62.85
2018-11-07T13:55:16.966Z,62.41
2018-11-07T13:57:46.210Z,62.27
2018-11-07T14:00:17.278Z,63.16
2018-11-07T14:02:46.780Z,62.73
2018-11-07T14:05:15.774Z,63.40
2018-11-07T14:07:44.803Z,64.18
2018-11-07T14:10:18.317Z,64.34
2018-11-07T14:12:47.352Z,65.23
2018-11-07T14:15:16.326Z,65.01
2018-11-07T14:17:45.503Z,64.93
2018-11-07T14:20:14.499Z,64.52
2018-11-07T14:22:43.525Z,65.35
2018-11-07T14:25:13.113Z,64.97
2018-11-07T14:27:42.387Z,65.62
2018-11-07T14:30:13.023Z,65.74
2018-11-07T14:32:59.982Z,65.81
2018-11-07T14:35:28.941Z,65.98
2018-11-07T14:37:58.528Z,66.47
2018-11-07T14:40:27.556Z,67.27
2018-11-07T14:42:56.484Z,66.41
2018-11-07T14:45:25.602Z,67.03
2018-11-07T14:47:55.814Z,67.01
2018-11-07T14:50:24.765Z,67.61
2018-11-07T14:52:53.763Z,67.72
2018-11-07T14:55:22.724Z,67.51
2018-11-07T14:57:51.600Z,67.32
2018-11-07T15:00:20.567Z,67.86
2018-11-07T15:02:49.689Z,67.69
2018-11-07T15:05:19.148Z,68.18
2018-11-07T15:07:48.106Z,67.95
2018-11-07T15:10:17.886Z,67.59
2018-11-07T15:12:46.843Z,68.35
2018-11-07T15:15:18.381Z,68.76
2018-11-07T15:17:47.448Z,68.33
2018-11-07T15:20:17.243Z,68.98
2018-11-07T15:22:46.217Z,68.78
2018-11-07T15:25:16.175Z,68.85
2018-11-07T15:27:45.918Z,69.21
2018-11-07T15:30:15.948Z,68.79
2018-11-07T15:32:45.338Z,69.00
2018-11-07T15:35:14.770Z,68.70
2018-11-07T15:37:43.819Z,69.15
2018-11-07T15:40:18.733Z,69.10
2018-11-07T15:42:48.066Z,68.33
2018-11-07T15:45:19.151Z,68.42
2018-11-07T15:47:48.096Z,67.88
2018-11-07T15:50:22.171Z,67.53
2018-11-07T15:52:51.323Z,68.02
2018-11-07T15:55:20.252Z,67.91
2018-11-07T15:57:49.195Z,68.11
2018-11-07T16:00:19.079Z,68.23
2018-11-07T16:02:48.043Z,68.06
2018-11-07T16:05:18.931Z,68.15
2018-11-07T16:07:47.888Z,68.02
2018-11-07T16:10:17.149Z,68.18
2018-11-07T16:12:47.314Z,67.90
2018-11-07T16:15:17.465Z,68.13
2018-11-07T16:17:46.516Z,68.64
2018-11-07T16:20:18.105Z,68.27
2018-11-07T16:22:48.129Z,67.93
2018-11-07T16:25:17.157Z,68.75
2018-11-07T16:27:46.355Z,68.38
2018-11-07T16:30:16.847Z,68.48
2018-11-07T16:32:45.862Z,68.83
2018-11-07T16:35:16.627Z,69.43
2018-11-07T16:37:45.587Z,69.24
2018-11-07T16:40:15.674Z,70.02
2018-11-07T16:42:45.169Z,69.83
2018-11-07T16:45:14.848Z,69.40
2018-11-07T16:47:44.130Z,69.15
2018-11-07T16:50:15.799Z,68.81
2018-11-07T16:52:44.832Z,68.83
2018-11-07T16:55:13.759Z,69.09
2018-11-07T16:57:44.031Z,69.10
2018-11-07T17:00:18.057Z,68.63
2018-11-07T17:02:48.874Z,68.86
2018-11-07T17:05:18.306Z,68.72
2018-11-07T17:07:47.660Z,69.08
2018-11-07T17:10:16.945Z,68.96
2018-11-07T17:12:45.914Z,69.01
2018-11-07T17:15:14.881Z,69.51
2018-11-07T17:17:43.912Z,69.49
2018-11-07T17:20:14.308Z,69.81
2018-11-07T17:22:43.403Z,69.62
2018-11-07T17:25:14.525Z,69.90
2018-11-07T17:27:43.822Z,69.95
2018-11-07T17:30:13.947Z,70.18
2018-11-07T17:32:43.079Z,70.06
2018-11-07T17:35:17.343Z,69.81
2018-11-07T17:37:48.073Z,70.10
2018-11-07T17:40:19.227Z,70.12
2018-11-07T17:42:48.407Z,69.83
2018-11-07T17:45:18.852Z,70.04
2018-11-07T17:47:48.543Z,69.88
2018-11-07T17:50:18.095Z,70.12
2018-11-07T17:52:47.396Z,69.94
2018-11-07T17:55:17.177Z,70.12
2018-11-07T17:57:46.248Z,70.34
2018-11-07T18:00:17.826Z,70.39
2018-11-07T18:02:46.889Z,70.34
2018-11-07T18:05:15.919Z,70.06
2018-11-07T18:07:45.012Z,70.70
2018-11-07T18:10:15.394Z,70.72
2018-11-07T18:12:44.939Z,71.03
2018-11-07T18:15:14.092Z,71.01
2018-11-07T18:17:43.090Z,71.02
2018-11-07T18:20:13.413Z,70.96
2018-11-07T18:22:42.416Z,70.65
2018-11-07T18:25:12.583Z,70.45
2018-11-07T18:27:41.916Z,70.10
2018-11-07T18:30:13.035Z,70.41
2018-11-07T18:32:42.740Z,70.11
2018-11-07T18:35:13.362Z,69.84
2018-11-07T18:37:42.428Z,69.44
2018-11-07T18:40:12.809Z,68.97
2018-11-07T18:42:42.032Z,68.97
2018-11-07T18:45:11.873Z,68.57
2018-11-07T18:47:42.062Z,68.45
2018-11-07T18:50:12.659Z,68.45
2018-11-07T18:52:41.831Z,68.42
2018-11-07T18:55:14.200Z,68.15
2018-11-07T18:57:44.031Z,67.92
2018-11-07T19:00:14.883Z,68.10
2018-11-07T19:02:44.529Z,67.93
2018-11-07T19:05:13.632Z,67.78
2018-11-07T19:07:43.128Z,67.93
2018-11-07T19:10:20.914Z,67.72
2018-11-07T19:12:50.637Z,68.27
2018-11-07T19:15:19.771Z,68.44
2018-11-07T19:17:50.039Z,67.78
2018-11-07T19:20:20.617Z,68.01
2018-11-07T19:22:51.037Z,67.55
2018-11-07T19:25:21.265Z,67.25
2018-11-07T19:27:50.295Z,66.78
2018-11-07T19:30:20.619Z,66.67
2018-11-07T19:32:50.505Z,66.92
2018-11-07T19:35:19.975Z,66.67
2018-11-07T19:37:49.360Z,67.18
2018-11-07T19:40:25.768Z,67.36
2018-11-07T19:42:54.655Z,67.51
2018-11-07T19:45:24.171Z,67.02
2018-11-07T19:47:53.248Z,67.70
2018-11-07T19:50:22.819Z,67.24
2018-11-07T19:52:52.211Z,67.69
2018-11-07T19:55:24.017Z,67.57
2018-11-07T19:58:01.547Z,68.36
2018-11-07T20:00:30.546Z,68.25
2018-11-07T20:02:59.485Z,68.66
2018-11-07T20:05:28.492Z,68.49
2018-11-07T20:07:57.574Z,68.94
2018-11-07T20:10:26.574Z,68.56
2018-11-07T20:12:55.458Z,69.10
2018-11-07T20:15:25.770Z,69.14
2018-11-07T20:17:54.698Z,69.24
2018-11-07T20:20:23.676Z,69.91
2018-11-07T20:22:52.729Z,69.40
2018-11-07T20:25:21.724Z,69.58
2018-11-07T20:27:50.683Z,69.62
2018-11-07T20:30:20.692Z,69.12
2018-11-07T20:32:49.719Z,69.91
2018-11-07T20:35:19.713Z,69.49
2018-11-07T20:37:48.669Z,69.67
2018-11-07T20:40:18.954Z,69.89
2018-11-07T20:42:47.967Z,70.30
2018-11-07T20:45:17.504Z,69.60
2018-11-07T20:47:46.515Z,70.07
2018-11-07T20:50:16.993Z,69.41
2018-11-07T20:52:46.463Z,68.92
2018-11-07T20:55:15.849Z,68.71
2018-11-07T20:57:44.875Z,68.33
2018-11-07T21:00:17.829Z,67.89
2018-11-07T21:02:47.052Z,67.51
2018-11-07T21:05:16.020Z,67.87
2018-11-07T21:07:45.019Z,67.42
2018-11-07T21:10:18.025Z,67.69
2018-11-07T21:12:47.442Z,67.48
2018-11-07T21:15:17.421Z,67.73
2018-11-07T21:17:46.572Z,67.99
2018-11-07T21:20:15.776Z,68.20
2018-11-07T21:22:44.788Z,68.11
2018-11-07T21:25:14.095Z,67.76
2018-11-07T21:27:43.091Z,68.09
2018-11-07T21:30:13.332Z,67.77
2018-11-07T21:32:42.749Z,67.75
2018-11-07T21:35:11.822Z,67.73
2018-11-07T21:37:41.005Z,67.73
2018-11-07T21:40:11.826Z,67.70
2018-11-07T21:42:40.798Z,68.14
2018-11-07T21:45:11.157Z,68.22
2018-11-07T21:47:40.868Z,67.90
2018-11-07T21:50:11.355Z,68.00
2018-11-07T21:52:40.682Z,68.19
2018-11-07T21:55:09.748Z,68.38
2018-11-07T21:57:39.110Z,68.20
2018-11-07T22:00:10.990Z,68.07
2018-11-07T22:02:39.950Z,68.20
2018-11-07T22:05:09.356Z,68.20
2018-11-07T22:07:38.749Z,67.90
2018-11-07T22:10:08.565Z,67.92
2018-11-07T22:12:37.530Z,68.27
2018-11-07T22:15:07.399Z,68.41
2018-11-07T22:17:36.313Z,67.60
2018-11-07T22:20:07.978Z,67.79
2018-11-07T22:22:36.955Z,67.90
2018-11-07T22:25:06.195Z,67.93
2018-11-07T22:27:35.369Z,67.91
2018-11-07T22:30:04.570Z,68.75
2018-11-07T22:32:33.490Z,67.50
2018-11-07T22:35:02.581Z,67.38
2018-11-07T22:37:31.656Z,67.49
2018-11-07T22:40:00.609Z,67.10
2018-11-07T22:42:29.499Z,66.87
2018-11-07T22:44:58.686Z,66.42
2018-11-07T22:47:27.613Z,66.47
2018-11-07T22:49:56.523Z,66.40
2018-11-07T22:52:25.719Z,65.84
2018-11-07T22:54:54.661Z,65.67
2018-11-07T22:57:23.628Z,65.50
2018-11-07T22:59:52.612Z,65.33
2018-11-07T23:02:22.833Z,65.38
2018-11-07T23:04:53.109Z,65.58
2018-11-07T23:07:22.170Z,65.23
2018-11-07T23:09:51.144Z,64.69
2018-11-07T23:12:20.100Z,65.84
2018-11-07T23:14:49.050Z,68.94
2018-11-07T23:17:18.024Z,68.69
2018-11-07T23:19:47.011Z,68.37
2018-11-07T23:22:16.000Z,68.06
2018-11-07T23:24:44.991Z,67.62
2018-11-07T23:27:14.083Z,66.84
2018-11-07T23:29:43.011Z,66.95
2018-11-07T23:32:11.919Z,66.43
2018-11-07T23:34:40.935Z,65.94
2018-11-07T23:37:09.800Z,65.61
2018-11-07T23:39:38.771Z,64.97
2018-11-07T23:42:07.764Z,63.90
2018-11-07T23:44:36.714Z,62.46
2018-11-07T23:47:05.983Z,61.81
2018-11-07T23:49:35.013Z,61.87
2018-11-07T23:52:04.059Z,61.71
2018-11-07T23:54:32.919Z,62.26
2018-11-07T23:57:01.887Z,61.88
2018-11-07T23:59:30.876Z,61.67
